createdAt,value
2023-01-07T00:01:31.595Z,11.50
2023-01-07T00:04:02.513Z,11.50
2023-01-07T00:06:33.391Z,11.50
2023-01-07T00:09:02.249Z,11.50
2023-01-07T00:11:32.611Z,11.40
2023-01-07T00:14:01.717Z,11.30
2023-01-07T00:16:31.686Z,11.30
2023-01-07T00:19:03.529Z,11.30
2023-01-07T00:21:32.333Z,11.30
2023-01-07T00:24:02.393Z,11.30
2023-01-07T00:26:32.755Z,11.30
2023-01-07T00:29:01.089Z,11.30
2023-01-07T00:31:31.112Z,11.30
2023-01-07T00:34:09.741Z,11.20
2023-01-07T00:36:42.032Z,11.30
2023-01-07T00:39:13.437Z,11.30
2023-01-07T00:42:01.652Z,11.30
2023-01-07T00:44:29.802Z,11.30
2023-01-07T00:46:58.201Z,11.30
2023-01-07T00:49:26.394Z,11.30
2023-01-07T00:51:55.762Z,11.30
2023-01-07T00:54:24.628Z,11.30
2023-01-07T00:56:52.773Z,11.30
2023-01-07T00:59:20.748Z,11.30
2023-01-07T01:01:48.977Z,11.30
2023-01-07T01:04:17.977Z,11.20
2023-01-07T01:06:46.018Z,11.20
2023-01-07T01:09:15.406Z,11.20
2023-01-07T01:11:43.516Z,11.10
2023-01-07T01:14:12.531Z,11.10
2023-01-07T01:16:40.694Z,11.10
2023-01-07T01:19:08.716Z,11.10
2023-01-07T01:21:36.829Z,11.10
2023-01-07T01:24:05.200Z,11.10
2023-01-07T01:26:34.422Z,11.10
2023-01-07T01:29:02.540Z,11.10
2023-01-07T01:31:30.778Z,11.10
2023-01-07T01:33:59.876Z,11.10
2023-01-07T01:36:27.987Z,11.10
2023-01-07T01:38:57.430Z,11.10
2023-01-07T01:41:25.614Z,11.20
2023-01-07T01:43:54.996Z,11.10
2023-01-07T01:46:30.617Z,11.10
2023-01-07T01:49:02.967Z,11.20
2023-01-07T01:51:36.143Z,11.10
2023-01-07T01:54:07.400Z,11.10
2023-01-07T01:56:38.998Z,11.10
2023-01-07T01:59:11.560Z,11.10
2023-01-07T02:01:39.876Z,11.20
2023-01-07T02:04:11.947Z,11.20
2023-01-07T02:06:44.939Z,11.30
2023-01-07T02:09:13.289Z,11.30
2023-01-07T02:11:47.695Z,11.30
2023-01-07T02:14:33.257Z,11.40
2023-01-07T02:17:10.930Z,11.40
2023-01-07T02:20:04.289Z,11.40
2023-01-07T02:22:59.197Z,11.40
2023-01-07T02:26:06.034Z,11.50
2023-01-07T02:28:59.395Z,11.50
2023-01-07T02:32:04.178Z,11.40
2023-01-07T02:34:44.098Z,11.40
2023-01-07T02:37:16.396Z,11.40
2023-01-07T02:39:54.821Z,11.40
2023-01-07T02:42:27.711Z,11.30
2023-01-07T02:45:05.508Z,11.30
2023-01-07T02:47:37.524Z,11.30
2023-01-07T02:50:08.672Z,11.20
2023-01-07T02:52:37.344Z,11.10
2023-01-07T02:55:09.040Z,11.10
2023-01-07T02:57:53.623Z,11.00
2023-01-07T03:00:38.303Z,11.00
2023-01-07T03:03:18.656Z,10.90
2023-01-07T03:05:58.962Z,10.90
2023-01-07T03:08:39.238Z,10.80
2023-01-07T03:11:09.328Z,10.80
2023-01-07T03:13:41.375Z,10.80
2023-01-07T03:16:13.736Z,10.80
2023-01-07T03:18:45.260Z,10.80
2023-01-07T03:21:18.437Z,10.70
2023-01-07T03:23:51.601Z,10.70
2023-01-07T03:26:24.390Z,10.70
2023-01-07T03:28:53.839Z,10.70
2023-01-07T03:31:23.390Z,10.60
2023-01-07T03:33:55.183Z,10.60
2023-01-07T03:36:27.736Z,10.60
2023-01-07T03:38:57.391Z,10.60
2023-01-07T03:41:43.361Z,10.60
2023-01-07T03:44:11.413Z,10.50
2023-01-07T03:46:39.984Z,10.60
2023-01-07T03:49:08.095Z,10.60
2023-01-07T03:51:37.521Z,10.60
2023-01-07T03:54:06.480Z,10.60
2023-01-07T03:56:34.512Z,10.50
2023-01-07T03:59:02.603Z,10.60
2023-01-07T04:01:31.615Z,10.50
2023-01-07T04:04:01.749Z,10.50
2023-01-07T04:06:31.363Z,10.50
2023-01-07T04:09:00.793Z,10.60
2023-01-07T04:11:28.796Z,10.60
2023-01-07T04:13:57.158Z,10.60
2023-01-07T04:16:25.237Z,10.50
2023-01-07T04:18:53.339Z,10.60
2023-01-07T04:21:21.411Z,10.50
2023-01-07T04:23:49.465Z,10.50
2023-01-07T04:26:18.885Z,10.50
2023-01-07T04:28:46.976Z,10.60
2023-01-07T04:31:15.128Z,10.50
2023-01-07T04:33:44.096Z,10.50
2023-01-07T04:36:13.265Z,10.60
2023-01-07T04:38:41.352Z,10.60
2023-01-07T04:41:09.464Z,10.60
2023-01-07T04:43:38.919Z,10.70
2023-01-07T04:46:07.420Z,10.80
2023-01-07T04:48:35.487Z,10.80
2023-01-07T04:51:03.579Z,10.80
2023-01-07T04:53:31.990Z,10.90
2023-01-07T04:56:00.027Z,10.90
2023-01-07T04:58:28.080Z,10.90
2023-01-07T05:00:59.656Z,10.90
2023-01-07T05:03:27.754Z,10.90
2023-01-07T05:05:55.772Z,10.90
2023-01-07T05:08:23.879Z,10.90
2023-01-07T05:10:52.220Z,10.90
2023-01-07T05:13:22.452Z,10.90
2023-01-07T05:15:50.513Z,11.00
2023-01-07T05:18:19.975Z,10.90
2023-01-07T05:20:48.432Z,10.90
2023-01-07T05:23:16.544Z,10.90
2023-01-07T05:25:44.615Z,10.90
2023-01-07T05:28:13.000Z,10.90
2023-01-07T05:30:41.066Z,10.90
2023-01-07T05:33:09.247Z,10.90
2023-01-07T05:35:38.605Z,10.90
2023-01-07T05:38:06.690Z,10.90
2023-01-07T05:40:34.784Z,10.90
2023-01-07T05:43:02.791Z,11.00
2023-01-07T05:45:30.769Z,11.00
2023-01-07T05:47:58.849Z,11.00
2023-01-07T05:50:27.011Z,11.00
2023-01-07T05:52:56.466Z,11.00
2023-01-07T05:55:24.531Z,11.10
2023-01-07T05:57:52.778Z,11.10
2023-01-07T06:00:20.936Z,11.00
2023-01-07T06:02:48.941Z,11.10
2023-01-07T06:05:17.055Z,11.00
2023-01-07T06:07:45.151Z,11.00
2023-01-07T06:10:14.506Z,11.10
2023-01-07T06:12:42.601Z,11.10
2023-01-07T06:15:11.444Z,11.10
2023-01-07T06:17:39.533Z,11.10
2023-01-07T06:20:09.318Z,11.10
2023-01-07T06:22:37.501Z,11.10
2023-01-07T06:25:06.129Z,11.10
2023-01-07T06:27:35.422Z,11.10
2023-01-07T06:30:04.303Z,11.10
2023-01-07T06:32:32.613Z,11.10
2023-01-07T06:35:00.811Z,11.10
2023-01-07T06:37:28.918Z,11.10
2023-01-07T06:39:58.231Z,11.10
2023-01-07T06:42:26.368Z,11.10
2023-01-07T06:44:55.895Z,11.10
2023-01-07T06:47:25.315Z,11.20
2023-01-07T06:49:53.890Z,11.10
2023-01-07T06:52:22.005Z,11.10
2023-01-07T06:54:50.131Z,11.10
2023-01-07T06:57:18.244Z,11.10
2023-01-07T06:59:46.392Z,11.00
2023-01-07T07:02:20.150Z,11.00
2023-01-07T07:04:48.563Z,11.00
2023-01-07T07:07:17.342Z,10.90
2023-01-07T07:09:45.688Z,10.90
2023-01-07T07:12:14.381Z,10.80
2023-01-07T07:14:42.485Z,10.80
2023-01-07T07:17:10.704Z,10.80
2023-01-07T07:19:40.069Z,10.80
2023-01-07T07:22:08.095Z,10.80
2023-01-07T07:24:36.116Z,10.90
2023-01-07T07:27:04.181Z,10.90
2023-01-07T07:29:32.273Z,10.90
2023-01-07T07:32:00.321Z,10.90
2023-01-07T07:34:28.480Z,10.90
2023-01-07T07:36:58.720Z,10.80
2023-01-07T07:39:26.779Z,10.80
2023-01-07T07:41:54.873Z,10.80
2023-01-07T07:44:22.918Z,10.80
2023-01-07T07:46:51.037Z,10.80
2023-01-07T07:49:19.179Z,10.80
2023-01-07T07:51:47.256Z,10.90
2023-01-07T07:54:16.666Z,10.90
2023-01-07T07:56:44.747Z,10.90
2023-01-07T07:59:13.040Z,10.90
2023-01-07T08:01:42.193Z,10.90
2023-01-07T08:04:10.372Z,10.90
2023-01-07T08:06:38.564Z,11.00
2023-01-07T08:09:06.705Z,11.00
2023-01-07T08:11:36.171Z,11.00
2023-01-07T08:14:04.242Z,11.10
2023-01-07T08:16:32.258Z,11.00
2023-01-07T08:19:00.319Z,11.10
2023-01-07T08:21:28.296Z,11.10
2023-01-07T08:23:56.382Z,11.10
2023-01-07T08:26:24.370Z,11.10
2023-01-07T08:28:54.207Z,11.10
2023-01-07T08:31:22.301Z,11.10
2023-01-07T08:33:50.465Z,11.10
2023-01-07T08:36:22.913Z,11.10
2023-01-07T08:38:52.617Z,11.10
2023-01-07T08:41:20.924Z,11.10
2023-01-07T08:43:48.998Z,11.10
2023-01-07T08:46:18.533Z,11.10
2023-01-07T08:48:46.656Z,11.10
2023-01-07T08:51:14.886Z,11.10
2023-01-07T08:53:43.010Z,11.10
2023-01-07T08:56:11.043Z,11.10
2023-01-07T08:58:39.478Z,11.20
2023-01-07T09:01:08.609Z,11.20
2023-01-07T09:03:39.172Z,11.20
2023-01-07T09:06:07.705Z,11.20
2023-01-07T09:08:35.827Z,11.20
2023-01-07T09:11:04.031Z,11.20
2023-01-07T09:13:32.203Z,11.20
2023-01-07T09:16:00.377Z,11.30
2023-01-07T09:18:28.559Z,11.30
2023-01-07T09:20:57.923Z,11.30
2023-01-07T09:23:26.028Z,11.30
2023-01-07T09:25:54.064Z,11.30
2023-01-07T09:28:22.213Z,11.40
2023-01-07T09:30:50.395Z,11.40
2023-01-07T09:33:18.557Z,11.40
2023-01-07T09:35:46.582Z,11.40
2023-01-07T09:38:15.996Z,11.40
2023-01-07T09:40:46.048Z,11.40
2023-01-07T09:43:20.247Z,11.40
2023-01-07T09:45:51.837Z,11.50
2023-01-07T09:48:25.820Z,11.50
2023-01-07T09:50:59.833Z,11.50
2023-01-07T09:53:33.927Z,11.50
2023-01-07T09:56:11.848Z,11.50
2023-01-07T09:58:42.870Z,11.50
2023-01-07T10:01:21.826Z,11.60
2023-01-07T10:03:59.805Z,11.60
2023-01-07T10:06:43.027Z,11.60
2023-01-07T10:09:22.083Z,11.60
2023-01-07T10:12:00.512Z,11.60
2023-01-07T10:14:58.200Z,11.70
2023-01-07T10:17:38.426Z,11.70
2023-01-07T10:20:17.141Z,11.70
2023-01-07T10:22:51.802Z,11.70
2023-01-07T10:25:23.795Z,11.70
2023-01-07T10:27:55.887Z,11.70
2023-01-07T10:30:27.603Z,11.80
2023-01-07T10:33:02.617Z,11.80
2023-01-07T10:35:34.571Z,11.80
2023-01-07T10:38:05.596Z,11.80
2023-01-07T10:40:42.843Z,12.00
2023-01-07T10:43:23.477Z,12.10
2023-01-07T10:46:05.397Z,12.30
2023-01-07T10:49:01.095Z,12.20
2023-01-07T10:52:04.351Z,12.20
2023-01-07T10:54:49.794Z,12.20
2023-01-07T10:57:23.349Z,12.20
2023-01-07T10:59:54.530Z,12.20
2023-01-07T11:02:27.247Z,12.10
2023-01-07T11:04:56.835Z,12.30
2023-01-07T11:07:33.374Z,12.30
2023-01-07T11:10:05.512Z,12.20
2023-01-07T11:12:38.895Z,12.30
2023-01-07T11:15:14.639Z,12.30
2023-01-07T11:17:46.973Z,12.20
2023-01-07T11:20:15.053Z,12.20
2023-01-07T11:22:43.146Z,12.20
2023-01-07T11:25:29.003Z,12.20
2023-01-07T11:28:02.570Z,12.30
2023-01-07T11:30:33.358Z,12.30
2023-01-07T11:33:04.422Z,12.40
2023-01-07T11:35:32.864Z,12.60
2023-01-07T11:38:01.494Z,12.60
2023-01-07T11:40:31.501Z,12.70
2023-01-07T11:43:02.637Z,12.70
2023-01-07T11:45:34.043Z,12.80
2023-01-07T11:48:08.443Z,12.70
2023-01-07T11:50:38.917Z,12.70
2023-01-07T11:53:28.067Z,12.80
2023-01-07T11:56:06.349Z,12.80
2023-01-07T11:58:37.830Z,12.80
2023-01-07T12:01:14.956Z,12.90
2023-01-07T12:03:45.227Z,12.90
2023-01-07T12:06:21.901Z,12.90
2023-01-07T12:08:57.139Z,12.90
2023-01-07T12:11:31.754Z,12.90
2023-01-07T12:14:10.545Z,12.90
2023-01-07T12:16:39.380Z,12.90
2023-01-07T12:19:22.623Z,12.70
2023-01-07T12:22:08.685Z,12.60
2023-01-07T12:24:53.854Z,12.60
2023-01-07T12:27:35.544Z,12.50
2023-01-07T12:30:21.897Z,12.40
2023-01-07T12:33:00.126Z,12.40
2023-01-07T12:35:33.158Z,12.40
2023-01-07T12:38:07.043Z,12.40
2023-01-07T12:40:38.967Z,12.50
2023-01-07T12:43:19.417Z,12.50
2023-01-07T12:45:53.230Z,12.60
2023-01-07T12:48:28.329Z,12.60
2023-01-07T12:50:58.765Z,12.60
2023-01-07T12:53:35.295Z,12.70
2023-01-07T12:56:08.453Z,12.70
2023-01-07T12:58:46.912Z,12.70
2023-01-07T13:01:26.783Z,12.80
2023-01-07T13:04:06.637Z,12.70
2023-01-07T13:06:45.463Z,12.80
2023-01-07T13:09:23.989Z,12.70
2023-01-07T13:12:41.040Z,12.70
2023-01-07T13:15:05.119Z,12.60
2023-01-07T13:17:34.680Z,12.60
2023-01-07T13:20:04.788Z,12.50
2023-01-07T13:22:36.075Z,12.50
2023-01-07T13:25:22.846Z,12.40
2023-01-07T13:28:14.923Z,12.30
2023-01-07T13:30:52.737Z,12.30
2023-01-07T13:33:28.665Z,12.30
2023-01-07T13:36:15.949Z,12.30
2023-01-07T13:39:02.916Z,12.20
2023-01-07T13:41:44.873Z,12.20
2023-01-07T13:44:35.755Z,12.20
2023-01-07T13:47:05.736Z,12.20
2023-01-07T13:49:36.134Z,12.20
2023-01-07T13:52:17.326Z,12.20
2023-01-07T13:54:56.272Z,12.20
2023-01-07T13:57:43.537Z,12.20
2023-01-07T14:00:48.129Z,12.20
2023-01-07T14:03:38.487Z,12.20
2023-01-07T14:06:42.436Z,12.10
2023-01-07T14:09:25.818Z,12.10
2023-01-07T14:12:33.777Z,12.10
2023-01-07T14:15:30.387Z,12.00
2023-01-07T14:18:28.259Z,12.00
2023-01-07T14:21:06.526Z,11.90
2023-01-07T14:23:45.043Z,11.90
2023-01-07T14:26:30.627Z,11.90
2023-01-07T14:29:17.100Z,11.80
2023-01-07T14:31:45.930Z,11.80
2023-01-07T14:34:20.959Z,11.80
2023-01-07T14:37:11.569Z,11.80
2023-01-07T14:39:43.113Z,11.80
2023-01-07T14:42:42.875Z,11.90
2023-01-07T14:45:48.475Z,11.90
2023-01-07T14:48:37.077Z,11.90
2023-01-07T14:51:37.926Z,11.90
2023-01-07T14:54:35.016Z,11.80
2023-01-07T14:57:19.256Z,11.90
2023-01-07T15:00:17.973Z,11.90
2023-01-07T15:03:36.865Z,11.90
2023-01-07T15:06:26.513Z,11.80
2023-01-07T15:09:17.824Z,11.90
2023-01-07T15:12:05.343Z,11.90
2023-01-07T15:14:59.139Z,11.80
2023-01-07T15:17:27.574Z,11.80
2023-01-07T15:19:56.476Z,11.90
2023-01-07T15:23:04.057Z,11.90
2023-01-07T15:25:43.019Z,11.80
2023-01-07T15:28:18.044Z,11.80
2023-01-07T15:30:56.771Z,11.80
2023-01-07T15:33:44.806Z,11.70
2023-01-07T15:36:16.624Z,11.70
2023-01-07T15:38:50.251Z,11.70
2023-01-07T15:41:34.102Z,11.70
2023-01-07T15:44:04.933Z,11.70
2023-01-07T15:46:35.081Z,11.70
2023-01-07T15:49:21.653Z,11.70
2023-01-07T15:51:53.302Z,11.70
2023-01-07T15:54:34.387Z,11.60
2023-01-07T15:57:14.781Z,11.60
2023-01-07T15:59:46.356Z,11.60
2023-01-07T16:02:25.819Z,11.60
2023-01-07T16:04:56.812Z,11.60
2023-01-07T16:07:28.588Z,11.60
2023-01-07T16:09:57.849Z,11.70
2023-01-07T16:12:30.859Z,11.70
2023-01-07T16:14:59.433Z,11.60
2023-01-07T16:17:29.063Z,11.60
2023-01-07T16:20:21.674Z,11.50
2023-01-07T16:22:50.409Z,11.40
2023-01-07T16:25:27.727Z,11.30
2023-01-07T16:27:55.997Z,11.30
2023-01-07T16:30:24.908Z,11.30
2023-01-07T16:32:55.058Z,11.20
2023-01-07T16:35:31.290Z,11.10
2023-01-07T16:38:00.554Z,11.00
2023-01-07T16:40:34.717Z,11.10
2023-01-07T16:43:03.105Z,11.10
2023-01-07T16:45:33.342Z,11.00
2023-01-07T16:48:19.597Z,11.00
2023-01-07T16:50:49.948Z,11.00
2023-01-07T16:53:37.218Z,11.00
2023-01-07T16:56:17.228Z,10.80
2023-01-07T16:58:50.776Z,10.80
2023-01-07T17:01:21.299Z,10.70
2023-01-07T17:03:56.731Z,10.70
2023-01-07T17:06:27.580Z,10.70
2023-01-07T17:08:57.047Z,10.60
2023-01-07T17:11:31.356Z,10.60
2023-01-07T17:13:59.431Z,10.60
2023-01-07T17:16:30.364Z,10.60
2023-01-07T17:19:21.793Z,10.60
2023-01-07T17:21:49.952Z,10.60
2023-01-07T17:24:46.168Z,10.60
2023-01-07T17:27:21.849Z,10.60
2023-01-07T17:29:50.389Z,10.50
2023-01-07T17:32:18.596Z,10.50
2023-01-07T17:34:48.092Z,10.50
2023-01-07T17:37:18.098Z,10.50
2023-01-07T17:39:46.219Z,10.50
2023-01-07T17:42:40.045Z,10.50
2023-01-07T17:45:09.546Z,10.50
2023-01-07T17:47:37.630Z,10.50
2023-01-07T17:50:07.854Z,10.40
2023-01-07T17:52:35.979Z,10.40
2023-01-07T17:55:04.581Z,10.40
2023-01-07T17:57:32.563Z,10.40
2023-01-07T18:00:00.812Z,10.40
2023-01-07T18:02:31.749Z,10.40
2023-01-07T18:04:59.950Z,10.40
2023-01-07T18:07:29.331Z,10.40
2023-01-07T18:09:58.258Z,10.40
2023-01-07T18:12:32.221Z,10.30
2023-01-07T18:15:01.437Z,10.30
2023-01-07T18:17:29.884Z,10.30
2023-01-07T18:19:58.226Z,10.30
2023-01-07T18:22:26.452Z,10.30
2023-01-07T18:24:55.885Z,10.30
2023-01-07T18:27:23.873Z,10.40
2023-01-07T18:29:52.931Z,10.30
2023-01-07T18:32:21.006Z,10.30
2023-01-07T18:34:49.229Z,10.30
2023-01-07T18:37:18.013Z,10.30
2023-01-07T18:39:46.087Z,10.30
2023-01-07T18:42:15.614Z,10.30
2023-01-07T18:44:43.757Z,10.30
2023-01-07T18:47:12.048Z,10.20
2023-01-07T18:49:40.227Z,10.20
2023-01-07T18:52:09.506Z,10.20
2023-01-07T18:54:38.051Z,10.10
2023-01-07T18:57:06.512Z,10.10
2023-01-07T18:59:35.961Z,10.10
2023-01-07T19:02:04.085Z,10.10
2023-01-07T19:04:34.591Z,10.10
2023-01-07T19:07:03.723Z,10.10
2023-01-07T19:09:32.365Z,10.20
2023-01-07T19:12:00.471Z,10.20
2023-01-07T19:14:28.941Z,10.30
2023-01-07T19:16:58.479Z,10.30
2023-01-07T19:19:32.099Z,10.30
2023-01-07T19:22:02.356Z,10.30
2023-01-07T19:24:33.943Z,10.30
2023-01-07T19:27:01.843Z,10.40
2023-01-07T19:29:29.909Z,10.40
2023-01-07T19:31:59.303Z,10.40
2023-01-07T19:34:27.366Z,10.50
2023-01-07T19:36:55.464Z,10.50
2023-01-07T19:39:25.254Z,10.50
2023-01-07T19:41:53.332Z,10.50
2023-01-07T19:44:21.977Z,10.50
2023-01-07T19:46:51.024Z,10.50
2023-01-07T19:49:20.504Z,10.50
2023-01-07T19:51:50.498Z,10.50
2023-01-07T19:54:20.572Z,10.50
2023-01-07T19:56:49.465Z,10.50
2023-01-07T19:59:18.373Z,10.60
2023-01-07T20:01:46.989Z,10.50
2023-01-07T20:04:15.109Z,10.60
2023-01-07T20:06:46.713Z,10.60
2023-01-07T20:09:14.942Z,10.60
2023-01-07T20:11:43.380Z,10.60
2023-01-07T20:14:12.790Z,10.60
2023-01-07T20:16:42.387Z,10.60
2023-01-07T20:19:11.797Z,10.60
2023-01-07T20:21:40.580Z,10.60
2023-01-07T20:24:12.993Z,10.60
2023-01-07T20:26:41.644Z,10.60
2023-01-07T20:29:09.849Z,10.70
2023-01-07T20:31:37.970Z,10.70
2023-01-07T20:34:06.290Z,10.70
2023-01-07T20:36:34.553Z,10.80
2023-01-07T20:39:05.797Z,10.70
2023-01-07T20:41:38.651Z,10.60
2023-01-07T20:44:08.823Z,10.60
2023-01-07T20:46:39.068Z,10.70
2023-01-07T20:49:07.162Z,10.60
2023-01-07T20:51:36.411Z,10.60
2023-01-07T20:54:04.856Z,10.70
2023-01-07T20:56:33.024Z,10.70
2023-01-07T20:59:04.248Z,10.60
2023-01-07T21:01:32.697Z,10.60
2023-01-07T21:04:01.886Z,10.70
2023-01-07T21:06:30.122Z,10.70
2023-01-07T21:08:58.357Z,10.70
2023-01-07T21:11:26.569Z,10.70
2023-01-07T21:13:56.173Z,10.80
2023-01-07T21:16:27.511Z,10.80
2023-01-07T21:18:59.503Z,10.80
2023-01-07T21:21:27.788Z,10.80
2023-01-07T21:23:55.980Z,10.80
2023-01-07T21:26:24.896Z,10.80
2023-01-07T21:28:55.704Z,10.80
2023-01-07T21:31:26.419Z,10.80
2023-01-07T21:33:56.366Z,10.80
2023-01-07T21:36:25.511Z,10.80
2023-01-07T21:38:55.686Z,10.90
2023-01-07T21:41:25.033Z,10.90
2023-01-07T21:43:53.154Z,10.90
2023-01-07T21:46:22.569Z,10.90
2023-01-07T21:48:52.761Z,10.90
2023-01-07T21:51:23.216Z,10.90
2023-01-07T21:53:55.558Z,10.90
2023-01-07T21:56:25.369Z,10.90
2023-01-07T21:58:53.486Z,10.90
2023-01-07T22:01:23.355Z,10.90
2023-01-07T22:03:52.803Z,10.90
2023-01-07T22:06:22.754Z,10.90
2023-01-07T22:08:54.222Z,10.90
2023-01-07T22:11:22.571Z,10.90
2023-01-07T22:13:52.011Z,10.90
2023-01-07T22:16:20.461Z,10.90
2023-01-07T22:18:48.930Z,10.90
2023-01-07T22:21:19.210Z,10.90
2023-01-07T22:23:48.680Z,10.90
2023-01-07T22:26:18.385Z,10.90
2023-01-07T22:28:49.768Z,10.90
2023-01-07T22:31:20.800Z,10.90
2023-01-07T22:33:48.991Z,10.90
2023-01-07T22:36:22.148Z,11.00
2023-01-07T22:38:51.248Z,11.00
2023-01-07T22:41:19.574Z,10.90
2023-01-07T22:43:47.628Z,10.90
2023-01-07T22:46:21.611Z,11.00
2023-01-07T22:48:50.569Z,11.00
2023-01-07T22:51:25.027Z,11.00
2023-01-07T22:53:55.027Z,11.00
2023-01-07T22:56:24.563Z,11.00
2023-01-07T22:58:52.662Z,11.00
2023-01-07T23:01:21.087Z,11.00
2023-01-07T23:03:49.373Z,11.00
2023-01-07T23:06:19.136Z,11.00
2023-01-07T23:08:47.210Z,11.00
2023-01-07T23:11:35.980Z,11.00
2023-01-07T23:14:04.233Z,11.00
2023-01-07T23:16:32.359Z,10.90
2023-01-07T23:19:00.402Z,10.90
2023-01-07T23:21:31.411Z,10.90
2023-01-07T23:23:59.754Z,10.90
2023-01-07T23:26:27.760Z,10.90
2023-01-07T23:28:55.836Z,10.90
2023-01-07T23:31:23.974Z,10.90
2023-01-07T23:33:52.067Z,10.80
2023-01-07T23:36:20.391Z,10.80
2023-01-07T23:38:49.896Z,10.80
2023-01-07T23:41:18.173Z,10.80
2023-01-07T23:43:46.389Z,10.80
2023-01-07T23:46:14.429Z,10.80
2023-01-07T23:48:42.515Z,10.80
2023-01-07T23:51:12.884Z,10.90
2023-01-07T23:53:41.481Z,10.80
2023-01-07T23:56:11.216Z,10.80
2023-01-07T23:58:39.612Z,10.80
